Time;durP1;ratioP1;P1;durP2;ratioP2;P2;SDS_P1;SDS_P2;PMS_P1;PMS_P2;Temp;Humidity;BMP_temperature;BMP_pressure;BME280_temperature;BME280_humidity;BME280_pressure;Samples;Min_cycle;Max_cycle;Signal;HPM_P1;HPM_P2
2023/01/17 00:01:41;;;;;;;1999.90;999.90;;;5.20;99.90;;;;;;5083865;28;20515;-68
2023/01/17 00:09:55;;;;;;;1999.90;999.90;;;5.10;99.90;;;;;;5089057;28;20417;-69
2023/01/17 00:12:23;;;;;;;1999.90;999.90;;;5.20;99.90;;;;;;5081164;28;20429;-67
2023/01/17 00:14:52;;;;;;;1999.90;999.90;;;5.20;99.90;;;;;;5085621;28;20471;-67
2023/01/17 00:17:18;;;;;;;1999.90;999.90;;;5.20;99.90;;;;;;5083943;28;20429;-70
2023/01/17 01:34:30;;;;;;;1999.90;999.90;;;5.10;99.90;;;;;;5086033;28;20442;-66
2023/01/17 01:36:57;;;;;;;1999.90;999.90;;;5.20;99.90;;;;;;5085254;28;20846;-67
2023/01/17 01:39:24;;;;;;;1999.90;999.90;;;5.30;99.90;;;;;;5086012;28;20844;-70
2023/01/17 01:41:50;;;;;;;1999.90;999.90;;;5.30;99.90;;;;;;5087635;28;20959;-67
2023/01/17 01:44:44;;;;;;;1999.90;999.90;;;5.20;99.90;;;;;;5082552;28;20482;-67
2023/01/17 01:47:15;;;;;;;1999.90;999.90;;;5.20;99.90;;;;;;5077034;28;20435;-71
2023/01/17 01:49:42;;;;;;;1999.90;999.90;;;5.20;99.90;;;;;;5076096;28;20421;-68
2023/01/17 01:52:10;;;;;;;1999.90;999.90;;;5.20;99.90;;;;;;5084937;28;20429;-69
2023/01/17 01:54:41;;;;;;;1999.90;999.90;;;5.30;99.90;;;;;;5084715;28;20433;-68
2023/01/17 01:57:10;;;;;;;1999.90;999.90;;;5.20;99.90;;;;;;5080129;28;20503;-67
2023/01/17 01:59:41;;;;;;;1999.90;999.90;;;5.10;99.90;;;;;;5086420;28;20425;-67
2023/01/17 02:02:08;;;;;;;1999.90;999.90;;;5.10;99.90;;;;;;5087834;28;20429;-69
2023/01/17 03:49:00;;;;;;;1999.90;999.90;;;4.70;99.90;;;;;;5085705;28;20416;-67
2023/01/17 03:51:26;;;;;;;1999.90;999.90;;;4.70;99.90;;;;;;5082473;28;20430;-65
2023/01/17 03:53:53;;;;;;;1999.90;999.90;;;4.80;99.90;;;;;;5090840;28;20433;-68
2023/01/17 03:56:20;;;;;;;1999.90;999.90;;;4.80;99.90;;;;;;5089383;28;20978;-70
2023/01/17 03:58:47;;;;;;;1999.90;999.90;;;4.70;99.90;;;;;;5089865;28;20426;-67
2023/01/17 04:01:13;;;;;;;1999.90;999.90;;;4.70;99.90;;;;;;5088736;28;20434;-68
2023/01/17 04:03:40;;;;;;;1999.90;999.90;;;4.60;99.90;;;;;;5088606;28;20463;-66
2023/01/17 04:06:08;;;;;;;1999.90;999.90;;;4.60;99.90;;;;;;5101141;28;20434;-71
2023/01/17 04:08:34;;;;;;;1999.90;999.90;;;4.50;99.90;;;;;;5106103;28;20426;-72
2023/01/17 04:11:01;;;;;;;1999.90;999.90;;;4.50;99.90;;;;;;5107418;28;20414;-68
2023/01/17 04:13:28;;;;;;;1999.90;999.90;;;4.50;99.90;;;;;;5097471;28;20856;-70
2023/01/17 04:15:55;;;;;;;1999.90;999.90;;;4.50;99.90;;;;;;5095583;28;20427;-68
2023/01/17 04:18:23;;;;;;;1999.90;999.90;;;4.50;99.90;;;;;;5089346;28;20434;-69
2023/01/17 04:20:50;;;;;;;1999.90;999.90;;;4.50;99.90;;;;;;5090564;28;20513;-71
2023/01/17 04:23:18;;;;;;;1999.90;999.90;;;4.40;99.90;;;;;;5089973;28;20775;-68
2023/01/17 04:25:45;;;;;;;1999.90;999.90;;;4.40;99.90;;;;;;5087412;28;20431;-68
2023/01/17 04:28:12;;;;;;;1999.90;999.90;;;4.50;99.90;;;;;;5088744;28;20460;-67
2023/01/17 04:30:39;;;;;;;1999.90;999.90;;;4.50;99.90;;;;;;5089259;28;20438;-71
2023/01/17 04:33:05;;;;;;;1999.90;999.90;;;4.40;99.90;;;;;;5090354;28;20434;-68
2023/01/17 04:35:33;;;;;;;1999.90;999.90;;;4.40;99.90;;;;;;5087133;28;20429;-68
2023/01/17 04:37:59;;;;;;;1999.90;999.90;;;4.40;99.90;;;;;;5088526;28;20520;-68
2023/01/17 04:40:28;;;;;;;1999.90;999.90;;;4.40;99.90;;;;;;5088092;28;20434;-67
2023/01/17 04:42:55;;;;;;;1999.90;999.90;;;4.40;99.90;;;;;;5090024;28;20426;-68
2023/01/17 04:45:21;;;;;;;1999.90;999.90;;;4.50;99.90;;;;;;5088800;28;20433;-68
2023/01/17 04:47:48;;;;;;;1999.90;999.90;;;4.50;99.90;;;;;;5089414;28;20429;-69
2023/01/17 04:50:15;;;;;;;1999.90;999.90;;;4.50;99.90;;;;;;5087247;28;20958;-68
2023/01/17 04:52:41;;;;;;;1999.90;999.90;;;4.50;99.90;;;;;;5088679;28;20449;-67
2023/01/17 04:55:09;;;;;;;1999.90;999.90;;;4.50;99.90;;;;;;5089804;28;20485;-69
2023/01/17 04:57:37;;;;;;;1999.90;999.90;;;4.50;99.90;;;;;;5088843;28;20434;-69
2023/01/17 05:00:04;;;;;;;1999.90;999.90;;;4.50;99.90;;;;;;5088060;28;20434;-69
2023/01/17 05:02:31;;;;;;;1999.90;999.90;;;4.40;99.90;;;;;;5099385;28;20426;-69
2023/01/17 05:04:57;;;;;;;1999.90;999.90;;;4.40;99.90;;;;;;5093099;28;20422;-68
2023/01/17 05:07:24;;;;;;;1999.90;999.90;;;4.40;99.90;;;;;;5086196;28;20487;-69
2023/01/17 05:09:51;;;;;;;1999.90;999.90;;;4.40;99.90;;;;;;5086787;28;20430;-68
2023/01/17 05:12:17;;;;;;;1999.90;999.90;;;4.40;99.90;;;;;;5084736;28;20431;-71
2023/01/17 05:14:45;;;;;;;1999.90;999.90;;;4.50;99.90;;;;;;5095213;28;20424;-70
2023/01/17 05:17:12;;;;;;;1999.90;999.90;;;4.50;99.90;;;;;;5109617;28;20413;-71
2023/01/17 05:19:39;;;;;;;1999.90;999.90;;;4.40;99.90;;;;;;5106465;28;20462;-69
2023/01/17 05:22:13;;;;;;;1999.90;999.90;;;4.40;99.90;;;;;;5108497;28;20430;-72
2023/01/17 05:24:40;;;;;;;1999.90;999.90;;;4.30;99.90;;;;;;5108384;28;20422;-72
2023/01/17 05:27:07;;;;;;;1999.90;999.90;;;4.30;99.90;;;;;;5103429;28;20430;-70
2023/01/17 05:29:34;;;;;;;1999.90;999.90;;;4.20;99.90;;;;;;5090638;28;20456;-71
2023/01/17 05:32:01;;;;;;;1999.90;999.90;;;4.20;99.90;;;;;;5089209;28;20432;-71
2023/01/17 05:34:28;;;;;;;1999.90;999.90;;;4.30;99.90;;;;;;5089159;28;20429;-71
2023/01/17 05:36:55;;;;;;;1999.90;999.90;;;4.30;99.90;;;;;;5088897;28;20848;-71
2023/01/17 05:39:22;;;;;;;1999.90;999.90;;;4.30;99.90;;;;;;5086479;28;20442;-70
2023/01/17 05:41:49;;;;;;;1999.90;999.90;;;4.30;99.90;;;;;;5088211;28;20495;-71
2023/01/17 05:44:15;;;;;;;1999.90;999.90;;;4.40;99.90;;;;;;5088788;28;20422;-71
2023/01/17 05:46:42;;;;;;;1999.90;999.90;;;4.40;99.90;;;;;;5087955;28;20431;-71
2023/01/17 05:49:10;;;;;;;1999.90;999.90;;;4.40;99.90;;;;;;5087381;28;20430;-71
2023/01/17 05:51:38;;;;;;;1999.90;999.90;;;4.40;99.90;;;;;;5087575;28;20429;-72
2023/01/17 05:54:05;;;;;;;1999.90;999.90;;;4.40;99.90;;;;;;5086083;28;20440;-73
2023/01/17 05:56:32;;;;;;;1999.90;999.90;;;4.40;99.90;;;;;;5088477;28;20434;-71
2023/01/17 05:58:59;;;;;;;1999.90;999.90;;;4.40;99.90;;;;;;5082463;28;20430;-70
2023/01/17 06:01:25;;;;;;;1999.90;999.90;;;4.30;99.90;;;;;;5086885;28;20836;-71
2023/01/17 06:03:52;;;;;;;1999.90;999.90;;;4.20;99.90;;;;;;5085431;28;20901;-69
2023/01/17 06:06:20;;;;;;;1999.90;999.90;;;4.20;99.90;;;;;;5088401;28;20425;-72
2023/01/17 06:08:47;;;;;;;1999.90;999.90;;;4.10;99.90;;;;;;5082657;28;20434;-70
2023/01/17 06:11:13;;;;;;;1999.90;999.90;;;4.00;99.90;;;;;;5089230;28;20426;-70
2023/01/17 06:13:40;;;;;;;1999.90;999.90;;;4.10;99.90;;;;;;5085064;28;20851;-71
2023/01/17 06:16:07;;;;;;;1999.90;999.90;;;4.00;99.90;;;;;;5088840;28;20855;-71
2023/01/17 06:18:34;;;;;;;1999.90;999.90;;;4.00;99.90;;;;;;5087065;28;20445;-71
2023/01/17 06:21:01;;;;;;;1999.90;999.90;;;4.10;99.90;;;;;;5088637;28;20434;-71
2023/01/17 06:23:29;;;;;;;1999.90;999.90;;;4.10;99.90;;;;;;5087920;28;20425;-70
2023/01/17 06:25:56;;;;;;;1999.90;999.90;;;4.20;99.90;;;;;;5078307;28;20455;-69
2023/01/17 06:28:23;;;;;;;1999.90;999.90;;;4.20;99.90;;;;;;5090114;28;20449;-71
2023/01/17 06:30:50;;;;;;;1999.90;999.90;;;4.10;99.90;;;;;;5088869;28;20430;-72
2023/01/17 06:33:16;;;;;;;1999.90;999.90;;;4.00;99.90;;;;;;5089001;28;20418;-72
2023/01/17 06:35:48;;;;;;;1999.90;999.90;;;4.00;99.90;;;;;;5084901;28;20421;-71
2023/01/17 06:38:15;;;;;;;1999.90;999.90;;;4.10;99.90;;;;;;5083577;28;20428;-71
2023/01/17 06:40:43;;;;;;;1999.90;999.90;;;3.90;99.90;;;;;;5088801;28;20486;-70
2023/01/17 06:43:10;;;;;;;1999.90;999.90;;;3.90;99.90;;;;;;5082078;28;20966;-69
2023/01/17 06:45:37;;;;;;;1999.90;999.90;;;3.90;99.90;;;;;;5086512;28;21083;-70
2023/01/17 06:48:04;;;;;;;1999.90;999.90;;;3.90;99.90;;;;;;5086692;28;20491;-71
2023/01/17 06:50:32;;;;;;;1999.90;999.90;;;4.00;99.90;;;;;;5086092;28;20430;-72
2023/01/17 06:53:00;;;;;;;1999.90;999.90;;;3.90;99.90;;;;;;5083783;28;20417;-71
2023/01/17 06:55:28;;;;;;;1999.90;999.90;;;3.90;99.90;;;;;;5086253;28;20429;-74
2023/01/17 06:57:58;;;;;;;1999.90;999.90;;;4.00;99.90;;;;;;5086791;28;20924;-68
2023/01/17 07:00:25;;;;;;;1999.90;999.90;;;4.00;99.90;;;;;;5086661;28;20430;-71
2023/01/17 07:02:52;;;;;;;1999.90;999.90;;;4.00;99.90;;;;;;5087771;28;20431;-71
2023/01/17 07:05:19;;;;;;;1999.90;999.90;;;3.90;99.90;;;;;;5087284;28;20452;-73
2023/01/17 07:07:46;;;;;;;1999.90;999.90;;;3.90;99.90;;;;;;5085687;28;20430;-72
2023/01/17 07:10:15;;;;;;;1999.90;999.90;;;4.00;99.90;;;;;;5088062;28;20434;-72
2023/01/17 07:12:42;;;;;;;1999.90;999.90;;;4.00;99.90;;;;;;5086729;28;20434;-72
2023/01/17 07:15:11;;;;;;;1999.90;999.90;;;4.00;99.90;;;;;;5087638;28;20487;-68
2023/01/17 07:17:38;;;;;;;1999.90;999.90;;;4.00;99.90;;;;;;5089230;28;20486;-72
2023/01/17 07:20:05;;;;;;;1999.90;999.90;;;4.00;99.90;;;;;;5089667;28;20471;-72
2023/01/17 07:22:32;;;;;;;1999.90;999.90;;;4.00;99.90;;;;;;5089991;28;20432;-71
2023/01/17 07:24:59;;;;;;;1999.90;999.90;;;3.80;99.90;;;;;;5087273;28;20431;-72
2023/01/17 07:27:26;;;;;;;1999.90;999.90;;;3.70;99.90;;;;;;5089118;28;20441;-73
2023/01/17 07:29:53;;;;;;;1999.90;999.90;;;3.60;99.90;;;;;;5085834;28;20827;-72
2023/01/17 07:32:21;;;;;;;1999.90;999.90;;;3.60;99.90;;;;;;5089632;28;20434;-71
2023/01/17 07:34:47;;;;;;;1999.90;999.90;;;3.50;99.90;;;;;;5096998;28;20454;-74
2023/01/17 07:37:14;;;;;;;1999.90;999.90;;;3.40;99.90;;;;;;5091112;28;20432;-71
2023/01/17 07:39:41;;;;;;;1999.90;999.90;;;3.50;99.90;;;;;;5087458;28;21432;-70
2023/01/17 07:42:08;;;;;;;1999.90;999.90;;;3.50;99.90;;;;;;5091123;28;20430;-69
2023/01/17 07:44:34;;;;;;;1999.90;999.90;;;3.50;99.90;;;;;;5089417;28;20434;-71
2023/01/17 07:47:01;;;;;;;1999.90;999.90;;;3.50;99.90;;;;;;5089867;28;20436;-70
2023/01/17 07:49:29;;;;;;;1999.90;999.90;;;3.60;99.90;;;;;;5088338;28;20438;-70
2023/01/17 07:51:55;;;;;;;1999.90;999.90;;;3.60;99.90;;;;;;5090000;28;20441;-71
2023/01/17 07:54:22;;;;;;;1999.90;999.90;;;3.60;99.90;;;;;;5091026;28;20481;-70
2023/01/17 07:56:49;;;;;;;1999.90;999.90;;;3.70;99.90;;;;;;5083971;28;20434;-70
2023/01/17 07:59:16;;;;;;;1999.90;999.90;;;3.70;99.90;;;;;;5088824;28;20426;-72
2023/01/17 08:01:43;;;;;;;1999.90;999.90;;;3.80;99.90;;;;;;5088968;28;20472;-70
2023/01/17 08:04:10;;;;;;;1999.90;999.90;;;3.80;99.90;;;;;;5087876;28;20437;-72
2023/01/17 08:06:41;;;;;;;1999.90;999.90;;;3.80;99.90;;;;;;5083486;28;20421;-71
2023/01/17 08:09:08;;;;;;;1999.90;999.90;;;3.90;99.90;;;;;;5085521;28;22541;-70
2023/01/17 08:11:34;;;;;;;1999.90;999.90;;;3.90;99.90;;;;;;5087737;28;20503;-70
2023/01/17 08:14:01;;;;;;;1999.90;999.90;;;3.90;99.90;;;;;;5084540;28;20480;-74
2023/01/17 08:16:28;;;;;;;1999.90;999.90;;;3.90;99.90;;;;;;5084410;28;20442;-70
2023/01/17 08:18:55;;;;;;;1999.90;999.90;;;4.00;99.90;;;;;;5087693;28;20453;-71
2023/01/17 08:21:23;;;;;;;1999.90;999.90;;;4.00;99.90;;;;;;5088834;28;20625;-68
2023/01/17 08:23:52;;;;;;;1999.90;999.90;;;4.10;99.90;;;;;;5090090;28;20434;-72
2023/01/17 08:26:21;;;;;;;1999.90;999.90;;;4.10;99.90;;;;;;5088874;28;20427;-71
2023/01/17 08:28:48;;;;;;;1999.90;999.90;;;4.20;99.90;;;;;;5089188;28;20863;-70
2023/01/17 08:31:16;;;;;;;1999.90;999.90;;;4.20;99.90;;;;;;5091021;28;20499;-72
2023/01/17 08:33:43;;;;;;;1999.90;999.90;;;4.10;99.90;;;;;;5088489;28;20452;-72
2023/01/17 08:36:09;;;;;;;1999.90;999.90;;;4.10;99.90;;;;;;5089021;28;20449;-72
2023/01/17 08:38:36;;;;;;;1999.90;999.90;;;4.00;99.90;;;;;;5084780;28;20828;-71
2023/01/17 08:41:04;;;;;;;1999.90;999.90;;;4.10;99.90;;;;;;5089572;28;20425;-69
2023/01/17 08:43:31;;;;;;;1999.90;999.90;;;4.00;99.90;;;;;;5087574;28;20967;-71
2023/01/17 08:45:58;;;;;;;1999.90;999.90;;;3.90;99.90;;;;;;5088958;28;20425;-70
2023/01/17 08:48:25;;;;;;;1999.90;999.90;;;3.90;99.90;;;;;;5087377;28;20830;-71
2023/01/17 08:50:52;;;;;;;1999.90;999.90;;;4.00;99.90;;;;;;5083045;28;20519;-72
2023/01/17 08:53:20;;;;;;;1999.90;999.90;;;4.00;99.90;;;;;;5087156;28;20433;-72
2023/01/17 08:55:47;;;;;;;1999.90;999.90;;;4.10;99.90;;;;;;5085524;28;20426;-70
2023/01/17 08:58:15;;;;;;;1999.90;999.90;;;4.30;99.90;;;;;;5084991;28;20438;-69
2023/01/17 09:00:41;;;;;;;1999.90;999.90;;;4.40;99.90;;;;;;5083077;28;20434;-70
2023/01/17 09:03:12;;;;;;;1999.90;999.90;;;4.40;99.90;;;;;;5086325;28;20434;-69
2023/01/17 09:05:39;;;;;;;1999.90;999.90;;;4.50;99.90;;;;;;5088089;28;20434;-69
2023/01/17 09:08:06;;;;;;;1999.90;999.90;;;4.50;99.90;;;;;;5081927;28;20434;-68
2023/01/17 09:10:33;;;;;;;1999.90;999.90;;;4.50;99.90;;;;;;5085341;28;20429;-72
2023/01/17 09:12:59;;;;;;;1999.90;999.90;;;4.40;99.90;;;;;;5086425;28;20430;-70
2023/01/17 09:15:28;;;;;;;1999.90;999.90;;;4.50;99.90;;;;;;5085845;28;20430;-71
2023/01/17 09:17:55;;;;;;;1999.90;999.90;;;4.70;99.90;;;;;;5082654;28;20434;-69
2023/01/17 09:20:22;;;;;;;1999.90;999.90;;;4.60;99.90;;;;;;5087117;28;20438;-71
2023/01/17 09:22:49;;;;;;;1999.90;999.90;;;4.60;99.90;;;;;;5082886;28;20452;-69
2023/01/17 09:25:16;;;;;;;1999.90;999.90;;;4.50;99.90;;;;;;5084137;28;20490;-71
2023/01/17 09:27:45;;;;;;;1999.90;999.90;;;4.60;99.90;;;;;;5083117;28;20430;-71
2023/01/17 09:30:12;;;;;;;1999.90;999.90;;;4.60;99.90;;;;;;5082762;28;20509;-71
2023/01/17 09:32:40;;;;;;;1999.90;999.90;;;4.70;99.90;;;;;;5080635;28;20912;-72
2023/01/17 09:35:08;;;;;;;1999.90;999.90;;;4.70;99.90;;;;;;5084915;28;20456;-70
2023/01/17 09:37:35;;;;;;;1999.90;999.90;;;4.70;99.90;;;;;;5080947;28;20937;-69
2023/01/17 09:40:02;;;;;;;1999.90;999.90;;;4.70;99.90;;;;;;5084924;28;20441;-70
2023/01/17 09:42:34;;;;;;;1999.90;999.90;;;4.80;99.90;;;;;;5084442;28;20888;-70
2023/01/17 09:45:01;;;;;;;1999.90;999.90;;;4.80;99.90;;;;;;5084449;28;20441;-70
2023/01/17 09:47:34;;;;;;;1999.90;999.90;;;5.00;99.90;;;;;;5086566;28;20516;-71
2023/01/17 09:50:16;;;;;;;1999.90;999.90;;;5.10;99.90;;;;;;5085016;28;20433;-71
2023/01/17 09:52:43;;;;;;;1999.90;999.90;;;5.00;99.90;;;;;;5083753;28;20429;-72
2023/01/17 09:55:14;;;;;;;1999.90;999.90;;;4.90;99.90;;;;;;5085254;28;20479;-71
2023/01/17 09:57:52;;;;;;;1999.90;999.90;;;4.90;99.90;;;;;;5082639;28;20432;-70
2023/01/17 10:00:33;;;;;;;1999.90;999.90;;;4.90;99.90;;;;;;5086496;28;20421;-70
2023/01/17 10:03:16;;;;;;;1999.90;999.90;;;4.90;99.90;;;;;;5083041;28;20948;-72
2023/01/17 10:05:58;;;;;;;1999.90;999.90;;;4.90;99.90;;;;;;5084024;28;20475;-70
2023/01/17 10:08:36;;;;;;;1999.90;999.90;;;4.80;99.90;;;;;;5081632;28;20478;-70
2023/01/17 10:11:22;;;;;;;1999.90;999.90;;;4.80;99.90;;;;;;5085607;28;20474;-70
2023/01/17 10:14:00;;;;;;;1999.90;999.90;;;4.70;99.90;;;;;;5081135;28;20483;-71
2023/01/17 10:16:39;;;;;;;1999.90;999.90;;;4.80;99.90;;;;;;5079245;28;20422;-70
2023/01/17 10:19:39;;;;;;;1999.90;999.90;;;4.60;99.90;;;;;;5086716;28;20436;-68
2023/01/17 10:22:24;;;;;;;1999.90;999.90;;;4.50;99.90;;;;;;5059583;28;20487;-69
2023/01/17 10:25:18;;;;;;;1999.90;999.90;;;4.50;99.90;;;;;;5077239;28;20450;-71
2023/01/17 10:27:51;;;;;;;1999.90;999.90;;;4.60;99.90;;;;;;5081199;28;21144;-68
2023/01/17 10:30:22;;;;;;;1999.90;999.90;;;4.90;99.90;;;;;;5080845;28;20425;-71
2023/01/17 10:32:49;;;;;;;1999.90;999.90;;;5.00;99.90;;;;;;5082203;28;20832;-71
2023/01/17 10:35:22;;;;;;;1999.90;999.90;;;5.10;99.90;;;;;;5090855;28;20474;-70
2023/01/17 10:37:55;;;;;;;1999.90;999.90;;;5.20;99.90;;;;;;5089473;28;20493;-71
2023/01/17 10:40:28;;;;;;;1999.90;999.90;;;5.20;99.90;;;;;;5081614;28;20417;-70
2023/01/17 10:43:00;;;;;;;1999.90;999.90;;;5.20;99.90;;;;;;5070478;28;20489;-70
2023/01/17 10:45:28;;;;;;;1999.90;999.90;;;5.30;99.90;;;;;;5070197;28;20818;-71
2023/01/17 10:48:04;;;;;;;1999.90;999.90;;;5.30;99.90;;;;;;5072252;28;20829;-69
2023/01/17 10:50:45;;;;;;;1999.90;999.90;;;5.20;99.90;;;;;;5084279;28;20410;-71
2023/01/17 10:53:23;;;;;;;1999.90;999.90;;;5.40;99.90;;;;;;5074084;28;20461;-71
2023/01/17 10:55:53;;;;;;;1999.90;999.90;;;5.40;99.90;;;;;;5087396;28;20974;-73
2023/01/17 10:58:20;;;;;;;1999.90;999.90;;;5.40;99.90;;;;;;5086776;28;20500;-70
2023/01/17 11:00:49;;;;;;;1999.90;999.90;;;5.50;99.90;;;;;;5089709;28;20490;-71
2023/01/17 11:03:19;;;;;;;1999.90;999.90;;;5.50;99.90;;;;;;5085905;28;20411;-71
2023/01/17 11:06:08;;;;;;;1999.90;999.90;;;5.60;99.90;;;;;;5074710;28;20415;-72
2023/01/17 11:08:50;;;;;;;1999.90;999.90;;;5.70;99.90;;;;;;5077138;28;22531;-69
2023/01/17 11:11:17;;;;;;;1999.90;999.90;;;5.70;99.90;;;;;;5083806;28;20572;-71
2023/01/17 11:13:46;;;;;;;1999.90;999.90;;;5.60;99.90;;;;;;5089068;28;20483;-70
2023/01/17 11:16:19;;;;;;;1999.90;999.90;;;5.40;99.90;;;;;;5090469;28;20460;-68
2023/01/17 11:18:48;;;;;;;1999.90;999.90;;;5.40;99.90;;;;;;5086129;28;20462;-70
2023/01/17 11:21:17;;;;;;;1999.90;999.90;;;5.50;99.90;;;;;;5089462;28;20494;-70
2023/01/17 11:23:46;;;;;;;1999.90;999.90;;;5.60;99.90;;;;;;5083347;28;20553;-73
2023/01/17 11:26:23;;;;;;;1999.90;999.90;;;5.70;99.90;;;;;;5078001;28;20404;-73
2023/01/17 11:28:50;;;;;;;1999.90;999.90;;;5.80;99.90;;;;;;5079814;28;20428;-68
2023/01/17 11:31:26;;;;;;;1999.90;999.90;;;6.00;99.90;;;;;;5073686;28;20408;-70
2023/01/17 11:34:08;;;;;;;1999.90;999.90;;;5.90;99.90;;;;;;5073184;28;20810;-69
2023/01/17 11:36:35;;;;;;;1999.90;999.90;;;5.90;99.90;;;;;;5075654;28;20911;-68
2023/01/17 11:39:05;;;;;;;1999.90;999.90;;;6.00;99.90;;;;;;5086229;28;20434;-68
2023/01/17 11:41:35;;;;;;;1999.90;999.90;;;6.00;99.90;;;;;;5086448;28;20433;-70
2023/01/17 11:44:03;;;;;;;1999.90;999.90;;;6.00;99.90;;;;;;5086966;28;20771;-69
2023/01/17 11:46:30;;;;;;;1999.90;999.90;;;6.10;99.90;;;;;;5092984;28;20459;-71
2023/01/17 11:48:59;;;;;;;1999.90;999.90;;;6.20;99.90;;;;;;5086012;28;20431;-70
2023/01/17 11:51:28;;;;;;;1999.90;999.90;;;6.10;99.90;;;;;;5073422;28;20814;-70
2023/01/17 11:54:08;;;;;;;1999.90;999.90;;;6.10;99.90;;;;;;5079167;28;20777;-70
2023/01/17 11:56:36;;;;;;;1999.90;999.90;;;6.00;99.90;;;;;;5072413;28;20420;-69
2023/01/17 11:59:22;;;;;;;1999.90;999.90;;;5.90;99.90;;;;;;5080207;28;20426;-70
2023/01/17 12:02:15;;;;;;;1999.90;999.90;;;6.10;99.90;;;;;;5080264;28;20472;-71
2023/01/17 12:04:45;;;;;;;1999.90;999.90;;;5.90;99.90;;;;;;5080136;28;20423;-66
2023/01/17 12:07:21;;;;;;;1999.90;999.90;;;5.90;99.90;;;;;;5086720;28;20421;-70
2023/01/17 12:09:57;;;;;;;1999.90;999.90;;;5.90;99.90;;;;;;5084236;28;20406;-68
2023/01/17 12:15:30;;;;;;;1999.90;999.90;;;5.70;99.90;;;;;;5072182;28;20403;-69
2023/01/17 12:18:19;;;;;;;1999.90;999.90;;;5.80;99.90;;;;;;5071949;28;20481;-67
2023/01/17 12:20:55;;;;;;;1999.90;999.90;;;5.90;99.90;;;;;;5089881;28;20430;-68
2023/01/17 12:23:37;;;;;;;1999.90;999.90;;;6.00;99.90;;;;;;5076135;28;20428;-71
2023/01/17 12:26:19;;;;;;;1999.90;999.90;;;5.80;99.90;;;;;;5091203;28;20413;-68
2023/01/17 12:29:26;;;;;;;1999.90;999.90;;;5.80;99.90;;;;;;5091782;28;20417;-69
2023/01/17 12:32:03;;;;;;;1999.90;999.90;;;5.60;99.90;;;;;;5074206;28;20886;-68
2023/01/17 12:34:34;;;;;;;1999.90;999.90;;;5.60;99.90;;;;;;5081228;28;20433;-69
2023/01/17 12:37:06;;;;;;;1999.90;999.90;;;5.70;99.90;;;;;;5071530;28;20842;-67
2023/01/17 12:39:36;;;;;;;1999.90;999.90;;;5.70;99.90;;;;;;5072420;28;20419;-68
2023/01/17 12:42:09;;;;;;;1999.90;999.90;;;5.70;99.90;;;;;;5084179;28;20425;-67
2023/01/17 12:44:50;;;;;;;1999.90;999.90;;;5.80;99.90;;;;;;5086015;28;20479;-72
2023/01/17 12:47:19;;;;;;;1999.90;999.90;;;5.80;99.90;;;;;;5077842;28;20409;-68
2023/01/17 12:49:52;;;;;;;1999.90;999.90;;;5.80;99.90;;;;;;5091369;28;20983;-72
2023/01/17 12:52:27;;;;;;;1999.90;999.90;;;5.90;99.90;;;;;;5089966;28;20900;-70
2023/01/17 12:54:59;;;;;;;1999.90;999.90;;;5.90;99.90;;;;;;5076437;28;20414;-64
2023/01/17 12:57:33;;;;;;;1999.90;999.90;;;5.70;99.90;;;;;;5085848;28;20933;-67
2023/01/17 13:00:04;;;;;;;1999.90;999.90;;;5.40;99.90;;;;;;5089560;28;20483;-67
2023/01/17 13:02:36;;;;;;;1999.90;999.90;;;5.20;99.90;;;;;;5086625;28;20435;-69
2023/01/17 13:05:08;;;;;;;1999.90;999.90;;;5.10;99.90;;;;;;5089294;28;20429;-72
2023/01/17 13:07:44;;;;;;;1999.90;999.90;;;5.30;99.90;;;;;;5086316;28;21154;-67
2023/01/17 13:10:30;;;;;;;1999.90;999.90;;;5.20;99.90;;;;;;5086754;28;20832;-69
2023/01/17 13:13:18;;;;;;;1999.90;999.90;;;5.30;99.90;;;;;;5083679;28;20422;-72
2023/01/17 13:15:47;;;;;;;1999.90;999.90;;;5.30;99.90;;;;;;5080331;28;20426;-67
2023/01/17 13:18:21;;;;;;;1999.90;999.90;;;5.30;99.90;;;;;;5087197;28;20441;-68
2023/01/17 13:21:07;;;;;;;1999.90;999.90;;;5.30;99.90;;;;;;5087808;28;20426;-69
2023/01/17 13:23:44;;;;;;;1999.90;999.90;;;5.30;99.90;;;;;;5087106;28;20434;-70
2023/01/17 13:26:20;;;;;;;1999.90;999.90;;;5.30;99.90;;;;;;5086128;28;20453;-73
2023/01/17 13:28:56;;;;;;;1999.90;999.90;;;5.40;99.90;;;;;;5083608;28;20442;-69
2023/01/17 13:31:52;;;;;;;1999.90;999.90;;;5.30;99.90;;;;;;5077995;28;20435;-70
2023/01/17 13:34:57;;;;;;;1999.90;999.90;;;5.30;99.90;;;;;;5075702;28;20418;-71
2023/01/17 13:37:52;;;;;;;1999.90;999.90;;;5.30;99.90;;;;;;5023573;28;20990;-72
2023/01/17 13:40:29;;;;;;;1999.90;999.90;;;5.20;99.90;;;;;;5084919;28;21929;-70
2023/01/17 13:42:58;;;;;;;1999.90;999.90;;;5.30;99.90;;;;;;5087985;28;20436;-70
2023/01/17 13:45:29;;;;;;;1999.90;999.90;;;5.20;99.90;;;;;;5088294;28;20425;-70
2023/01/17 13:48:24;;;;;;;1999.90;999.90;;;5.10;99.90;;;;;;5084617;28;20431;-71
2023/01/17 13:50:52;;;;;;;1999.90;999.90;;;5.00;99.90;;;;;;5070894;28;20407;-71
2023/01/17 13:53:56;;;;;;;1999.90;999.90;;;5.00;99.90;;;;;;5070889;28;20416;-68
2023/01/17 13:56:34;;;;;;;1999.90;999.90;;;5.00;99.90;;;;;;5084051;28;20876;-71
2023/01/17 13:59:29;;;;;;;1999.90;999.90;;;5.00;99.90;;;;;;5076292;28;20427;-70
2023/01/17 14:01:58;;;;;;;1999.90;999.90;;;4.90;99.90;;;;;;5070725;28;20473;-70
2023/01/17 14:04:45;;;;;;;1999.90;999.90;;;4.80;99.90;;;;;;5070536;28;20904;-68
2023/01/17 14:07:25;;;;;;;1999.90;999.90;;;4.80;99.90;;;;;;5085608;28;20837;-68
2023/01/17 14:09:51;;;;;;;1999.90;999.90;;;4.80;99.90;;;;;;5070310;28;20506;-68
2023/01/17 14:12:31;;;;;;;1999.90;999.90;;;4.80;99.90;;;;;;5070531;28;20450;-72
2023/01/17 14:15:01;;;;;;;1999.90;999.90;;;4.70;99.90;;;;;;5074298;28;20425;-69
2023/01/17 14:17:57;;;;;;;1999.90;999.90;;;4.70;99.90;;;;;;5084346;28;20432;-65
2023/01/17 14:20:57;;;;;;;1999.90;999.90;;;4.50;99.90;;;;;;5084926;28;20776;-67
2023/01/17 14:23:51;;;;;;;1999.90;999.90;;;4.40;99.90;;;;;;5092377;28;20936;-68
2023/01/17 14:26:31;;;;;;;1999.90;999.90;;;4.20;99.90;;;;;;5085124;28;20427;-67
2023/01/17 14:29:19;;;;;;;1999.90;999.90;;;4.20;99.90;;;;;;5088010;28;20463;-67
2023/01/17 14:31:48;;;;;;;1999.90;999.90;;;4.30;99.90;;;;;;5093153;28;20445;-73
2023/01/17 14:34:21;;;;;;;1999.90;999.90;;;4.30;99.90;;;;;;5094259;28;20449;-70
2023/01/17 14:36:48;;;;;;;1999.90;999.90;;;4.30;99.90;;;;;;5083570;28;20429;-69
2023/01/17 14:39:22;;;;;;;1999.90;999.90;;;4.20;99.90;;;;;;5093535;28;20421;-69
2023/01/17 14:41:49;;;;;;;1999.90;999.90;;;4.20;99.90;;;;;;5094059;28;20828;-68
2023/01/17 14:44:16;;;;;;;1999.90;999.90;;;4.20;99.90;;;;;;5092030;28;20491;-68
2023/01/17 14:46:48;;;;;;;1999.90;999.90;;;4.20;99.90;;;;;;5087466;28;20796;-68
2023/01/17 14:49:24;;;;;;;1999.90;999.90;;;4.10;99.90;;;;;;5090451;28;20437;-70
2023/01/17 14:52:00;;;;;;;1999.90;999.90;;;4.10;99.90;;;;;;5093717;28;20875;-67
2023/01/17 14:54:27;;;;;;;1999.90;999.90;;;4.20;99.90;;;;;;5093976;28;20409;-69
2023/01/17 14:57:13;;;;;;;1999.90;999.90;;;4.00;99.90;;;;;;5084617;28;20490;-70
2023/01/17 14:59:40;;;;;;;1999.90;999.90;;;4.00;99.90;;;;;;5073926;28;20415;-70
2023/01/17 15:02:17;;;;;;;1999.90;999.90;;;3.90;99.90;;;;;;5073723;28;20419;-68
2023/01/17 15:04:45;;;;;;;1999.90;999.90;;;3.80;99.90;;;;;;5073859;28;20435;-71
2023/01/17 15:07:18;;;;;;;1999.90;999.90;;;3.90;99.90;;;;;;5082244;28;20422;-67
2023/01/17 15:09:45;;;;;;;1999.90;999.90;;;3.80;99.90;;;;;;5085908;28;20441;-71
2023/01/17 15:12:13;;;;;;;1999.90;999.90;;;3.70;99.90;;;;;;5091371;28;20790;-68
2023/01/17 15:14:44;;;;;;;1999.90;999.90;;;3.60;99.90;;;;;;5090081;28;20422;-68
2023/01/17 15:17:18;;;;;;;1999.90;999.90;;;3.50;99.90;;;;;;5087006;28;20426;-70
2023/01/17 15:19:47;;;;;;;1999.90;999.90;;;3.40;99.90;;;;;;5079782;28;20426;-68
2023/01/17 15:22:15;;;;;;;1999.90;999.90;;;3.30;99.90;;;;;;5084992;28;21414;-71
2023/01/17 15:24:44;;;;;;;1999.90;999.90;;;3.40;99.90;;;;;;5087778;28;20430;-69
2023/01/17 15:27:13;;;;;;;1999.90;999.90;;;3.40;99.90;;;;;;5081493;28;20427;-68
2023/01/17 15:29:40;;;;;;;1999.90;999.90;;;3.40;99.90;;;;;;5090232;28;20516;-67
2023/01/17 15:32:15;;;;;;;1999.90;999.90;;;3.50;99.90;;;;;;5088505;28;20483;-70
2023/01/17 15:34:46;;;;;;;1999.90;999.90;;;3.30;99.90;;;;;;5089581;28;20425;-67
2023/01/17 15:37:24;;;;;;;1999.90;999.90;;;3.20;99.90;;;;;;5089451;28;20426;-70